createdAt,value
2018-10-05T00:02:22.942Z,12.20
2018-10-05T00:04:50.554Z,12.20
2018-10-05T00:07:19.888Z,12.10
2018-10-05T00:09:47.980Z,12.10
2018-10-05T00:12:15.536Z,12.10
2018-10-05T00:14:44.465Z,12.00
2018-10-05T00:17:11.981Z,12.00
2018-10-05T00:19:39.566Z,12.00
2018-10-05T00:22:07.091Z,12.10
2018-10-05T00:24:34.761Z,12.10
2018-10-05T00:27:04.238Z,12.00
2018-10-05T00:29:31.746Z,12.00
2018-10-05T00:31:59.502Z,12.00
2018-10-05T00:34:27.068Z,11.90
2018-10-05T00:36:54.632Z,11.90
2018-10-05T00:39:22.174Z,11.90
2018-10-05T00:41:51.262Z,11.90
2018-10-05T00:44:18.863Z,11.90
2018-10-05T00:46:46.406Z,11.90
2018-10-05T00:49:14.853Z,11.80
2018-10-05T00:51:42.420Z,11.70
2018-10-05T00:54:10.198Z,11.70
2018-10-05T00:56:37.755Z,11.70
2018-10-05T00:59:05.312Z,11.80
2018-10-05T01:01:32.892Z,11.80
2018-10-05T01:04:00.606Z,11.80
2018-10-05T01:06:28.227Z,11.80
2018-10-05T01:08:55.844Z,11.80
2018-10-05T01:11:23.394Z,11.80
2018-10-05T01:13:50.976Z,11.70
2018-10-05T01:16:18.545Z,11.70
2018-10-05T01:18:46.062Z,11.60
2018-10-05T01:21:14.208Z,11.60
2018-10-05T01:23:41.921Z,11.50
2018-10-05T01:26:09.398Z,11.50
2018-10-05T01:28:36.929Z,11.50
2018-10-05T01:31:04.517Z,11.50
2018-10-05T01:33:32.033Z,11.50
2018-10-05T01:35:59.927Z,11.50
2018-10-05T01:38:27.493Z,11.40
2018-10-05T01:40:55.063Z,11.40
2018-10-05T01:43:22.644Z,11.40
2018-10-05T01:45:50.347Z,11.40
2018-10-05T01:48:18.767Z,11.30
2018-10-05T01:50:46.281Z,11.30
2018-10-05T01:53:14.967Z,11.30
2018-10-05T01:55:44.977Z,11.20
2018-10-05T01:58:12.535Z,11.20
2018-10-05T02:00:40.061Z,11.10
2018-10-05T02:03:07.977Z,11.10
2018-10-05T02:05:35.603Z,11.10
2018-10-05T02:08:03.109Z,11.10
2018-10-05T02:10:30.659Z,11.00
2018-10-05T02:12:58.155Z,10.90
2018-10-05T02:15:25.670Z,10.90
2018-10-05T02:17:53.211Z,10.90
2018-10-05T02:20:21.703Z,11.00
2018-10-05T02:22:50.661Z,11.00
2018-10-05T02:25:19.431Z,11.10
2018-10-05T02:27:46.988Z,11.10
2018-10-05T02:30:15.853Z,11.20
2018-10-05T02:32:43.360Z,11.20
2018-10-05T02:35:10.869Z,11.20
2018-10-05T02:37:38.609Z,11.30
2018-10-05T02:40:08.208Z,11.30
2018-10-05T02:42:35.713Z,11.30
2018-10-05T02:45:03.289Z,11.40
2018-10-05T02:47:30.975Z,11.40
2018-10-05T02:49:58.541Z,11.40
2018-10-05T02:52:26.113Z,11.40
2018-10-05T02:54:54.657Z,11.40
2018-10-05T02:57:22.173Z,11.40
2018-10-05T02:59:49.914Z,11.50
2018-10-05T03:02:28.347Z,11.50
2018-10-05T03:04:56.309Z,11.40
2018-10-05T03:07:24.511Z,11.40
2018-10-05T03:09:52.067Z,11.40
2018-10-05T03:12:19.685Z,11.40
2018-10-05T03:14:48.445Z,11.40
2018-10-05T03:17:16.003Z,11.50
2018-10-05T03:19:43.775Z,11.50
2018-10-05T03:22:11.635Z,11.50
2018-10-05T03:24:39.985Z,11.50
2018-10-05T03:27:07.597Z,11.40
2018-10-05T03:29:35.143Z,11.50
2018-10-05T03:32:02.699Z,11.50
2018-10-05T03:34:30.263Z,11.40
2018-10-05T03:36:57.817Z,11.30
2018-10-05T03:39:25.374Z,11.30
2018-10-05T03:41:52.923Z,11.30
2018-10-05T03:44:20.463Z,11.30
2018-10-05T03:46:48.028Z,11.40
2018-10-05T03:49:15.563Z,11.20
2018-10-05T03:51:43.709Z,11.10
2018-10-05T03:54:11.256Z,11.10
2018-10-05T03:56:38.785Z,11.00
2018-10-05T03:59:06.272Z,11.00
2018-10-05T04:01:33.840Z,11.10
2018-10-05T04:04:02.773Z,11.10
2018-10-05T04:06:30.297Z,11.10
2018-10-05T04:08:58.463Z,11.00
2018-10-05T04:11:25.994Z,11.00
2018-10-05T04:13:53.541Z,11.00
2018-10-05T04:16:21.038Z,10.90
2018-10-05T04:18:48.591Z,10.90
2018-10-05T04:21:16.121Z,10.90
2018-10-05T04:23:43.674Z,10.90
2018-10-05T04:26:11.220Z,10.90
2018-10-05T04:28:39.601Z,10.70
2018-10-05T04:31:07.138Z,10.60
2018-10-05T04:33:35.810Z,10.60
2018-10-05T04:36:03.354Z,10.50
2018-10-05T04:38:30.862Z,10.50
2018-10-05T04:40:58.416Z,10.50
2018-10-05T04:43:26.330Z,10.50
2018-10-05T04:45:53.832Z,10.50
2018-10-05T04:48:21.382Z,10.40
2018-10-05T04:50:48.940Z,10.40
2018-10-05T04:53:16.467Z,10.50
2018-10-05T04:55:43.989Z,10.50
2018-10-05T04:58:11.539Z,10.50
2018-10-05T05:00:40.522Z,10.60
2018-10-05T05:03:08.072Z,10.50
2018-10-05T05:05:35.880Z,10.50
2018-10-05T05:08:03.447Z,10.60
2018-10-05T05:10:31.156Z,10.50
2018-10-05T05:12:58.697Z,10.40
2018-10-05T05:15:26.228Z,10.40
2018-10-05T05:17:54.088Z,10.30
2018-10-05T05:20:22.577Z,10.40
2018-10-05T05:22:51.450Z,10.40
2018-10-05T05:25:19.078Z,10.40
2018-10-05T05:27:46.577Z,10.40
2018-10-05T05:30:14.174Z,10.30
2018-10-05T05:32:41.708Z,10.30
2018-10-05T05:35:09.240Z,10.20
2018-10-05T05:37:37.727Z,10.10
2018-10-05T05:40:06.908Z,10.10
2018-10-05T05:42:34.579Z,10.10
2018-10-05T05:45:02.196Z,10.20
2018-10-05T05:47:29.709Z,10.20
2018-10-05T05:49:57.243Z,10.30
2018-10-05T05:52:25.651Z,10.30
2018-10-05T05:54:53.196Z,10.30
2018-10-05T05:57:21.655Z,10.20
2018-10-05T05:59:50.319Z,10.20
2018-10-05T06:02:17.887Z,10.30
2018-10-05T06:04:45.415Z,10.30
2018-10-05T06:07:12.920Z,10.30
2018-10-05T06:09:40.503Z,10.40
2018-10-05T06:12:08.057Z,10.40
2018-10-05T06:14:35.581Z,10.40
2018-10-05T06:17:03.193Z,10.40
2018-10-05T06:19:30.750Z,10.40
2018-10-05T06:21:58.439Z,10.40
2018-10-05T06:24:25.921Z,10.50
2018-10-05T06:26:53.617Z,10.50
2018-10-05T06:29:21.137Z,10.50
2018-10-05T06:31:48.693Z,10.50
2018-10-05T06:34:22.838Z,10.50
2018-10-05T06:36:50.388Z,10.50
2018-10-05T06:39:17.928Z,10.50
2018-10-05T06:41:45.536Z,10.40
2018-10-05T06:44:13.063Z,10.40
2018-10-05T06:46:40.635Z,10.40
2018-10-05T06:49:08.152Z,10.40
2018-10-05T06:51:35.983Z,10.40
2018-10-05T06:54:03.512Z,10.50
2018-10-05T06:56:31.067Z,10.70
2018-10-05T06:58:58.615Z,10.80
2018-10-05T07:01:26.143Z,10.90
2018-10-05T07:03:53.781Z,11.10
2018-10-05T07:06:21.420Z,11.20
2018-10-05T07:08:48.939Z,11.30
2018-10-05T07:11:16.594Z,11.40
2018-10-05T07:13:44.429Z,11.50
2018-10-05T07:16:12.013Z,11.60
2018-10-05T07:18:39.527Z,11.70
2018-10-05T07:21:07.459Z,11.80
2018-10-05T07:23:35.130Z,11.90
2018-10-05T07:26:02.719Z,12.00
2018-10-05T07:28:30.699Z,12.10
2018-10-05T07:30:58.660Z,12.20
2018-10-05T07:33:26.191Z,12.30
2018-10-05T07:35:53.737Z,12.40
2018-10-05T07:38:21.309Z,12.40
2018-10-05T07:40:48.829Z,12.50
2018-10-05T07:43:16.396Z,12.60
2018-10-05T07:45:43.986Z,12.70
2018-10-05T07:48:11.523Z,12.80
2018-10-05T07:50:39.035Z,12.90
2018-10-05T07:53:06.555Z,12.90
2018-10-05T07:55:34.120Z,13.00
2018-10-05T07:58:01.718Z,13.10
2018-10-05T08:00:29.256Z,13.20
2018-10-05T08:02:57.261Z,13.20
2018-10-05T08:05:24.813Z,13.30
2018-10-05T08:07:52.396Z,13.40
2018-10-05T08:10:19.949Z,13.50
2018-10-05T08:12:47.527Z,13.60
2018-10-05T08:15:15.069Z,13.60
2018-10-05T08:17:42.619Z,13.70
2018-10-05T08:20:10.225Z,13.80
2018-10-05T08:22:37.800Z,13.80
2018-10-05T08:25:05.441Z,13.90
2018-10-05T08:27:39.774Z,14.00
2018-10-05T08:30:07.384Z,14.00
2018-10-05T08:32:34.953Z,14.10
2018-10-05T08:35:02.714Z,14.30
2018-10-05T08:37:30.292Z,14.40
2018-10-05T08:39:57.926Z,14.50
2018-10-05T08:42:25.410Z,14.60
2018-10-05T08:44:53.088Z,14.80
2018-10-05T08:47:20.658Z,14.80
2018-10-05T08:49:48.243Z,15.00
2018-10-05T08:52:15.902Z,15.10
2018-10-05T08:54:43.395Z,15.20
2018-10-05T08:57:11.007Z,15.30
2018-10-05T08:59:38.626Z,15.30
2018-10-05T09:02:06.146Z,15.50
2018-10-05T09:04:33.713Z,15.70
2018-10-05T09:07:01.250Z,15.90
2018-10-05T09:09:28.854Z,16.10
2018-10-05T09:11:56.422Z,16.30
2018-10-05T09:14:24.004Z,16.40
2018-10-05T09:16:51.553Z,16.50
2018-10-05T09:19:19.095Z,16.70
2018-10-05T09:21:46.685Z,16.90
2018-10-05T09:24:14.369Z,16.90
2018-10-05T09:26:42.002Z,17.20
2018-10-05T09:29:09.532Z,17.30
2018-10-05T09:31:37.434Z,17.50
2018-10-05T09:34:05.004Z,17.60
2018-10-05T09:36:32.536Z,17.70
2018-10-05T09:39:00.345Z,17.70
2018-10-05T09:41:27.870Z,18.00
2018-10-05T09:43:55.375Z,18.10
2018-10-05T09:46:23.200Z,18.30
2018-10-05T09:48:50.784Z,18.40
2018-10-05T09:51:18.352Z,18.50
2018-10-05T09:53:46.032Z,18.70
2018-10-05T09:56:13.568Z,18.90
2018-10-05T09:58:41.102Z,19.20
2018-10-05T10:01:14.380Z,19.50
2018-10-05T10:03:41.890Z,19.60
2018-10-05T10:06:09.445Z,19.60
2018-10-05T10:08:37.092Z,19.90
2018-10-05T10:11:04.642Z,20.00
2018-10-05T10:13:32.239Z,20.20
2018-10-05T10:15:59.852Z,20.30
2018-10-05T10:18:27.361Z,20.60
2018-10-05T10:20:54.884Z,20.70
2018-10-05T10:23:22.414Z,20.80
2018-10-05T10:25:49.958Z,21.10
2018-10-05T10:28:17.629Z,21.20
2018-10-05T10:30:45.162Z,21.50
2018-10-05T10:33:12.720Z,21.60
2018-10-05T10:35:40.445Z,21.70
2018-10-05T10:38:07.974Z,22.00
2018-10-05T10:40:35.485Z,22.10
2018-10-05T10:43:03.019Z,22.40
2018-10-05T10:45:30.558Z,22.50
2018-10-05T10:47:58.096Z,22.70
2018-10-05T10:50:25.653Z,22.40
2018-10-05T10:52:53.254Z,22.30
2018-10-05T10:55:20.762Z,22.50
2018-10-05T10:57:48.315Z,22.40
2018-10-05T11:00:15.850Z,22.70
2018-10-05T11:02:43.458Z,23.00
2018-10-05T11:05:11.148Z,23.30
2018-10-05T11:07:38.737Z,23.50
2018-10-05T11:10:06.323Z,23.50
2018-10-05T11:12:34.103Z,24.00
2018-10-05T11:15:01.660Z,24.00
2018-10-05T11:17:29.184Z,24.40
2018-10-05T11:19:56.787Z,24.80
2018-10-05T11:22:24.443Z,24.80
2018-10-05T11:24:52.001Z,25.10
2018-10-05T11:27:19.559Z,25.30
2018-10-05T11:29:47.159Z,25.30
2018-10-05T11:32:14.881Z,25.80
2018-10-05T11:34:42.501Z,25.70
2018-10-05T11:37:10.033Z,25.90
2018-10-05T11:39:37.548Z,25.90
2018-10-05T11:42:05.080Z,26.10
2018-10-05T11:44:32.784Z,26.30
2018-10-05T11:47:00.557Z,26.20
2018-10-05T11:49:28.116Z,26.40
2018-10-05T11:51:55.653Z,26.60
2018-10-05T11:54:23.355Z,26.40
2018-10-05T11:56:50.903Z,26.40
2018-10-05T11:59:18.617Z,26.90
2018-10-05T12:01:46.128Z,26.90
2018-10-05T12:04:13.661Z,27.10
2018-10-05T12:06:41.532Z,27.40
2018-10-05T12:09:09.354Z,27.60
2018-10-05T12:11:37.470Z,27.50
2018-10-05T12:14:05.060Z,27.60
2018-10-05T12:16:32.590Z,27.50
2018-10-05T12:19:00.204Z,27.90
2018-10-05T12:21:27.772Z,27.90
2018-10-05T12:23:55.270Z,28.10
2018-10-05T12:26:22.837Z,28.40
2018-10-05T12:28:50.370Z,28.60
2018-10-05T12:31:17.904Z,28.30
2018-10-05T12:33:45.723Z,28.60
2018-10-05T12:36:13.449Z,28.70
2018-10-05T12:38:40.977Z,28.50
2018-10-05T12:41:08.491Z,28.80
2018-10-05T12:43:36.030Z,28.80
2018-10-05T12:46:03.593Z,28.90
2018-10-05T12:48:31.178Z,29.30
2018-10-05T12:50:58.813Z,29.40
2018-10-05T12:53:26.390Z,29.70
2018-10-05T12:55:53.897Z,29.80
2018-10-05T12:58:21.430Z,29.60
2018-10-05T13:00:48.964Z,30.00
2018-10-05T13:03:16.484Z,30.20
2018-10-05T13:05:44.020Z,30.30
2018-10-05T13:08:11.562Z,30.10
2018-10-05T13:10:39.194Z,30.20
2018-10-05T13:13:07.000Z,30.50
2018-10-05T13:15:34.582Z,31.10
2018-10-05T13:18:02.176Z,31.20
2018-10-05T13:20:29.696Z,31.30
2018-10-05T13:22:57.283Z,31.60
2018-10-05T13:25:24.858Z,31.90
2018-10-05T13:27:52.418Z,31.80
2018-10-05T13:30:19.980Z,31.80
2018-10-05T13:32:47.528Z,31.50
2018-10-05T13:35:15.094Z,31.80
2018-10-05T13:37:42.687Z,32.40
2018-10-05T13:40:10.208Z,32.40
2018-10-05T13:42:37.774Z,32.60
2018-10-05T13:45:05.396Z,32.20
2018-10-05T13:47:32.932Z,32.10
2018-10-05T13:50:00.726Z,31.90
2018-10-05T13:52:28.397Z,32.20
2018-10-05T13:54:55.954Z,32.60
2018-10-05T13:57:23.489Z,32.70
2018-10-05T13:59:51.020Z,32.80
2018-10-05T14:02:18.591Z,32.60
2018-10-05T14:04:46.136Z,32.70
2018-10-05T14:07:13.897Z,33.10
2018-10-05T14:09:41.396Z,33.60
2018-10-05T14:12:08.932Z,33.40
2018-10-05T14:14:36.660Z,33.40
2018-10-05T14:17:04.184Z,33.60
2018-10-05T14:19:31.694Z,33.40
2018-10-05T14:21:59.244Z,33.50
2018-10-05T14:24:26.836Z,33.60
2018-10-05T14:26:54.401Z,33.70
2018-10-05T14:29:22.006Z,33.60
2018-10-05T14:31:49.998Z,34.00
2018-10-05T14:34:17.537Z,34.30
2018-10-05T14:36:45.894Z,34.30
2018-10-05T14:39:13.448Z,33.80
2018-10-05T14:41:41.042Z,33.80
2018-10-05T14:44:08.579Z,34.00
2018-10-05T14:46:36.138Z,33.80
2018-10-05T14:49:03.652Z,33.50
2018-10-05T14:51:31.208Z,33.60
2018-10-05T14:53:58.714Z,34.00
2018-10-05T14:56:26.247Z,34.30
2018-10-05T14:58:53.787Z,34.50
2018-10-05T15:01:21.350Z,34.50
2018-10-05T15:03:48.895Z,34.90
2018-10-05T15:06:16.456Z,35.40
2018-10-05T15:08:44.022Z,35.10
2018-10-05T15:11:11.571Z,34.90
2018-10-05T15:13:39.110Z,35.00
2018-10-05T15:16:07.044Z,35.20
2018-10-05T15:18:34.588Z,35.00
2018-10-05T15:21:02.131Z,34.70
2018-10-05T15:23:29.663Z,34.50
2018-10-05T15:25:57.267Z,35.00
2018-10-05T15:28:25.121Z,35.20
2018-10-05T15:30:52.636Z,35.60
2018-10-05T15:33:20.143Z,35.70
2018-10-05T15:35:47.712Z,35.40
2018-10-05T15:38:15.220Z,35.10
2018-10-05T15:40:42.785Z,35.20
2018-10-05T15:43:10.427Z,35.40
2018-10-05T15:45:37.945Z,35.20
2018-10-05T15:48:05.547Z,35.10
2018-10-05T15:50:33.056Z,35.00
2018-10-05T15:53:00.674Z,35.10
2018-10-05T15:55:28.176Z,35.40
2018-10-05T15:57:55.726Z,35.40
2018-10-05T16:00:23.501Z,35.30
2018-10-05T16:02:51.043Z,35.10
2018-10-05T16:05:18.614Z,35.10
2018-10-05T16:07:46.386Z,35.00
2018-10-05T18:34:32.561Z,18.20
2018-10-05T18:37:00.264Z,18.00
2018-10-05T18:39:27.822Z,17.90
2018-10-05T18:41:55.352Z,17.80
2018-10-05T18:44:22.864Z,17.70
2018-10-05T18:46:50.547Z,17.60
2018-10-05T18:49:18.104Z,17.60
2018-10-05T18:51:45.674Z,17.70
2018-10-05T18:54:13.452Z,17.50
2018-10-05T18:56:52.311Z,17.40
2018-10-05T18:59:20.003Z,17.40
2018-10-05T19:01:47.562Z,17.30
2018-10-05T19:04:15.102Z,17.20
2018-10-05T19:06:42.621Z,17.10
2018-10-05T19:09:10.147Z,17.00
2018-10-05T19:11:37.918Z,17.00
2018-10-05T19:14:06.108Z,16.90
2018-10-05T19:16:34.058Z,16.80
2018-10-05T19:19:02.266Z,16.70
2018-10-05T19:21:30.572Z,16.60
2018-10-05T19:23:58.640Z,16.60
2018-10-05T19:26:26.529Z,16.60
2018-10-05T19:28:55.054Z,16.50
2018-10-05T19:31:22.919Z,16.40
2018-10-05T19:33:50.844Z,16.40
2018-10-05T19:36:18.968Z,16.50
2018-10-05T19:38:46.552Z,16.40
2018-10-05T19:41:14.580Z,16.30
2018-10-05T19:43:42.150Z,16.20
2018-10-05T19:46:09.828Z,16.10
2018-10-05T19:48:37.906Z,16.10
2018-10-05T19:51:05.503Z,16.10
2018-10-05T19:53:33.230Z,16.10
2018-10-05T19:56:00.977Z,16.00
2018-10-05T19:58:28.624Z,16.00
2018-10-05T20:00:56.189Z,15.90
2018-10-05T20:03:23.860Z,15.70
2018-10-05T20:05:51.406Z,15.70
2018-10-05T20:08:18.962Z,15.60
2018-10-05T20:10:46.761Z,15.50
2018-10-05T20:13:14.297Z,15.50
2018-10-05T20:15:41.857Z,15.50
2018-10-05T20:18:09.654Z,15.40
2018-10-05T20:20:37.148Z,15.40
2018-10-05T20:23:04.773Z,15.40
2018-10-05T20:25:32.362Z,15.30
2018-10-05T20:27:59.917Z,15.30
2018-10-05T20:30:27.458Z,15.30
2018-10-05T20:32:55.031Z,15.40
2018-10-05T20:35:22.554Z,15.40
2018-10-05T20:37:50.253Z,15.30
2018-10-05T20:40:17.659Z,15.20
2018-10-05T20:42:45.245Z,15.20
2018-10-05T20:45:12.765Z,15.20
2018-10-05T20:47:40.331Z,15.10
2018-10-05T20:50:07.895Z,15.10
2018-10-05T20:52:35.436Z,15.00
2018-10-05T20:55:03.217Z,15.00
2018-10-05T20:57:30.759Z,14.90
2018-10-05T20:59:58.287Z,14.90
2018-10-05T21:02:25.839Z,14.90
2018-10-05T21:04:53.378Z,14.90
2018-10-05T21:07:20.899Z,14.90
2018-10-05T21:09:48.508Z,14.80
2018-10-05T21:12:16.060Z,14.70
2018-10-05T21:14:43.619Z,14.60
2018-10-05T21:17:11.125Z,14.60
2018-10-05T21:19:38.635Z,14.60
2018-10-05T21:22:06.461Z,14.70
2018-10-05T21:24:33.966Z,14.60
2018-10-05T21:27:01.500Z,14.50
2018-10-05T21:29:29.026Z,14.50
2018-10-05T21:31:56.538Z,14.40
2018-10-05T21:34:24.070Z,14.40
2018-10-05T21:36:51.800Z,14.40
2018-10-05T21:39:19.288Z,14.40
2018-10-05T21:41:46.816Z,14.30
2018-10-05T21:44:14.390Z,14.40
2018-10-05T21:46:42.242Z,14.30
2018-10-05T21:49:09.763Z,14.30
2018-10-05T21:51:37.308Z,14.30
2018-10-05T21:54:05.128Z,14.30
2018-10-05T21:56:32.690Z,14.30
2018-10-05T21:59:00.276Z,14.20
2018-10-05T22:01:28.304Z,14.20
2018-10-05T22:03:55.836Z,14.20
2018-10-05T22:06:23.406Z,14.20
2018-10-05T22:08:50.934Z,14.20
2018-10-05T22:11:18.462Z,14.20
2018-10-05T22:13:46.042Z,14.10
2018-10-05T22:16:13.567Z,14.10
2018-10-05T22:18:41.148Z,14.10
2018-10-05T22:21:09.409Z,14.10
2018-10-05T22:23:36.958Z,14.00
2018-10-05T22:26:04.780Z,13.80
2018-10-05T22:28:32.323Z,13.80
2018-10-05T22:30:59.861Z,13.80
2018-10-05T22:33:27.414Z,13.80
2018-10-05T22:35:54.951Z,13.70
2018-10-05T22:38:22.520Z,13.60
2018-10-05T22:40:50.032Z,13.60
2018-10-05T22:43:17.840Z,13.60
2018-10-05T22:45:45.369Z,13.60
2018-10-05T22:48:12.882Z,13.60
2018-10-05T22:50:40.717Z,13.60
2018-10-05T22:53:08.262Z,13.60
2018-10-05T22:55:35.787Z,13.60
2018-10-05T22:58:03.319Z,13.50
2018-10-05T23:00:30.882Z,13.50
2018-10-05T23:02:58.398Z,13.40
2018-10-05T23:05:25.980Z,13.40
2018-10-05T23:07:53.510Z,13.50
2018-10-05T23:10:21.080Z,13.50
2018-10-05T23:12:48.590Z,13.60
2018-10-05T23:15:16.110Z,13.60
2018-10-05T23:17:43.660Z,13.60
2018-10-05T23:20:11.178Z,13.60
2018-10-05T23:22:38.680Z,13.60
2018-10-05T23:25:06.300Z,13.70
2018-10-05T23:27:33.811Z,13.70
2018-10-05T23:30:01.301Z,13.70
2018-10-05T23:32:28.868Z,13.70
2018-10-05T23:34:56.407Z,13.80
2018-10-05T23:37:23.927Z,13.80
2018-10-05T23:39:51.454Z,13.90
2018-10-05T23:42:18.994Z,13.90
2018-10-05T23:44:46.515Z,13.90
2018-10-05T23:47:14.094Z,13.90
2018-10-05T23:49:41.593Z,14.00
2018-10-05T23:52:20.510Z,14.00
2018-10-05T23:54:48.038Z,14.00
2018-10-05T23:57:15.531Z,14.00
2018-10-05T23:59:43.068Z,13.90
